AST,Max TemperatureF,Mean TemperatureF,Min TemperatureF,Max Dew PointF,MeanDew PointF,Min DewpointF,Max Humidity, Mean Humidity, Min Humidity, Max Sea Level PressureIn, Mean Sea Level PressureIn, Min Sea Level PressureIn, Max VisibilityMiles, Mean VisibilityMiles, Min VisibilityMiles, Max Wind SpeedMPH, Mean Wind SpeedMPH, Max Gust SpeedMPH,PrecipitationIn, CloudCover, Events, WindDirDegrees
2012-10-1,99,92,84,77,73,61,74,56,29,29.92,29.87,29.83,10,6,6,13,6,,0.00,1,,12
2012-10-2,100,92,85,81,72,50,79,55,13,29.93,29.87,29.83,7,6,4,10,6,18,0.00,1,,7
2012-10-3,102,93,84,81,73,59,79,55,21,29.89,29.83,29.77,6,6,5,14,6,,0.00,1,,350
2012-10-4,101,92,82,81,73,50,89,61,18,29.83,29.77,29.74,6,5,4,13,4,,0.00,1,,72
2012-10-5,98,89,80,77,72,61,84,58,29,29.86,29.80,29.77,6,5,4,10,4,,0.00,,,97
2012-10-6,99,91,83,77,70,55,74,52,22,29.91,29.85,29.77,9,6,4,9,4,,0.00,,,59
2012-10-7,102,92,83,75,70,41,74,54,13,29.94,29.89,29.86,10,6,5,12,5,,0.00,,,46
2012-10-8,101,92,82,75,67,39,79,50,10,29.94,29.88,29.83,10,5,4,12,4,,0.00,,,48
2012-10-9,100,91,82,79,74,54,89,63,22,29.89,29.85,29.80,9,5,3,9,4,,0.00,1,,85
2012-10-10,97,88,79,79,74,63,89,62,31,29.91,29.85,29.80,7,5,3,12,4,,0.00,1,,121
2012-10-11,101,92,82,77,70,52,79,54,17,29.95,29.88,29.86,7,5,4,12,4,,0.00,,,126
2012-10-12,104,92,81,77,69,45,74,52,13,29.95,29.88,29.83,9,6,4,8,4,,0.00,,,182
2012-10-13,104,92,81,75,61,36,74,42,9,29.91,29.85,29.80,10,8,6,15,6,,0.00,,,290
2012-10-14,101,92,84,77,66,55,74,45,16,29.93,29.88,29.83,9,5,4,17,9,,0.00,,,319
2012-10-15,97,90,82,70,64,50,66,45,23,29.98,29.91,29.86,7,7,7,16,8,,0.00,,,319
2012-10-16,96,88,81,73,70,63,70,55,32,29.98,29.93,29.89,9,6,0,12,7,,0.00,1,,348
2012-10-17,94,88,81,73,70,50,79,57,19,29.99,29.93,29.89,7,6,6,10,5,,0.00,1,,36
2012-10-18,95,87,79,74,70,59,74,58,30,29.98,29.92,29.89,7,6,5,12,4,,0.00,,,127
2012-10-19,92,87,82,75,72,70,70,59,45,30.01,29.95,29.92,7,6,5,12,6,,0.00,1,,95
2012-10-20,93,87,81,75,70,57,70,57,28,30.01,29.96,29.92,9,7,6,14,6,,0.00,1,,118
2012-10-21,95,89,83,75,72,57,74,59,28,30.03,29.97,29.95,10,7,6,12,6,,0.00,1,,93
2012-10-22,93,87,81,75,73,72,74,61,47,30.06,29.98,29.92,7,6,4,9,6,18,0.00,2,,64
2012-10-23,93,88,83,74,72,70,70,59,43,30.03,29.97,29.92,10,7,6,12,5,,0.00,3,,76
2012-10-24,92,86,81,75,72,66,74,61,39,30.03,29.96,29.92,7,6,5,13,5,,0.00,1,,77
2012-10-25,91,86,80,75,71,68,79,60,42,30.01,29.93,29.86,9,6,5,12,3,,0.00,1,,109
2012-10-26,96,88,79,73,69,57,66,55,28,29.96,29.90,29.86,7,6,6,12,4,,0.00,1,,140
2012-10-27,93,86,78,75,70,64,74,58,35,29.93,29.87,29.83,6,6,4,14,6,,0.00,1,,151
2012-10-28,93,87,81,77,71,66,74,58,37,29.98,29.91,29.86,9,6,6,13,7,,0.00,1,,118
2012-10-29,89,84,80,77,70,59,84,60,36,29.99,29.92,29.86,10,5,1,20,6,,0.00,2,,47
2012-10-30,90,86,81,70,61,50,66,45,26,30.01,29.95,29.92,10,7,6,16,10,,0.00,1,,343
2012-10-31,90,84,78,59,54,50,45,36,24,30.02,29.96,29.92,10,9,7,15,9,,0.00,,,329